sensor_id;sensor_type;location;lat;lon;timestamp;P1;durP1;ratioP1;P2;durP2;ratioP2
40649;SDS011;26342;42.826;23.992;2023-04-05T00:01:33;0.52;;;0.52;;
40649;SDS011;26342;42.826;23.992;2023-04-05T00:03:59;0.35;;;0.35;;
40649;SDS011;26342;42.826;23.992;2023-04-05T00:06:27;1.35;;;1.20;;
40649;SDS011;26342;42.826;23.992;2023-04-05T00:09:02;1.35;;;0.90;;
40649;SDS011;26342;42.826;23.992;2023-04-05T00:11:29;0.20;;;0.20;;
40649;SDS011;26342;42.826;23.992;2023-04-05T00:14:00;2.85;;;1.27;;
40649;SDS011;26342;42.826;23.992;2023-04-05T00:16:27;0.68;;;0.60;;
40649;SDS011;26342;42.826;23.992;2023-04-05T00:18:56;1.90;;;1.23;;
40649;SDS011;26342;42.826;23.992;2023-04-05T00:21:22;1.33;;;1.20;;
40649;SDS011;26342;42.826;23.992;2023-04-05T00:23:48;8.20;;;0.70;;
40649;SDS011;26342;42.826;23.992;2023-04-05T00:26:18;1.33;;;0.98;;
40649;SDS011;26342;42.826;23.992;2023-04-05T00:28:44;1.00;;;0.90;;
40649;SDS011;26342;42.826;23.992;2023-04-05T00:31:10;0.55;;;0.55;;
40649;SDS011;26342;42.826;23.992;2023-04-05T00:33:36;0.98;;;0.85;;
40649;SDS011;26342;42.826;23.992;2023-04-05T00:36:11;1.80;;;1.30;;
40649;SDS011;26342;42.826;23.992;2023-04-05T00:38:38;2.10;;;1.33;;
40649;SDS011;26342;42.826;23.992;2023-04-05T00:41:04;1.65;;;1.23;;
40649;SDS011;26342;42.826;23.992;2023-04-05T00:43:30;1.55;;;1.08;;
40649;SDS011;26342;42.826;23.992;2023-04-05T00:45:55;0.82;;;0.75;;
40649;SDS011;26342;42.826;23.992;2023-04-05T00:48:21;1.98;;;0.85;;
40649;SDS011;26342;42.826;23.992;2023-04-05T00:50:47;3.17;;;1.05;;
40649;SDS011;26342;42.826;23.992;2023-04-05T00:53:14;0.75;;;0.75;;
40649;SDS011;26342;42.826;23.992;2023-04-05T00:55:40;0.85;;;0.68;;
40649;SDS011;26342;42.826;23.992;2023-04-05T00:58:06;0.45;;;0.45;;
40649;SDS011;26342;42.826;23.992;2023-04-05T01:00:34;3.03;;;1.08;;
40649;SDS011;26342;42.826;23.992;2023-04-05T01:03:02;0.43;;;0.43;;
40649;SDS011;26342;42.826;23.992;2023-04-05T01:05:34;0.60;;;0.60;;
40649;SDS011;26342;42.826;23.992;2023-04-05T01:08:15;4.47;;;1.48;;
40649;SDS011;26342;42.826;23.992;2023-04-05T01:10:45;1.15;;;1.00;;
40649;SDS011;26342;42.826;23.992;2023-04-05T01:13:15;0.90;;;0.73;;
40649;SDS011;26342;42.826;23.992;2023-04-05T01:15:41;0.40;;;0.40;;
40649;SDS011;26342;42.826;23.992;2023-04-05T01:18:07;3.00;;;1.55;;
40649;SDS011;26342;42.826;23.992;2023-04-05T01:20:36;1.25;;;0.90;;
40649;SDS011;26342;42.826;23.992;2023-04-05T01:31:44;2.83;;;1.00;;
40649;SDS011;26342;42.826;23.992;2023-04-05T01:37:02;0.63;;;0.60;;
40649;SDS011;26342;42.826;23.992;2023-04-05T01:39:31;0.68;;;0.45;;
40649;SDS011;26342;42.826;23.992;2023-04-05T01:41:59;1.52;;;1.42;;
40649;SDS011;26342;42.826;23.992;2023-04-05T01:44:26;1.08;;;0.88;;
40649;SDS011;26342;42.826;23.992;2023-04-05T01:46:52;0.73;;;0.43;;
40649;SDS011;26342;42.826;23.992;2023-04-05T01:49:18;1.13;;;1.02;;
40649;SDS011;26342;42.826;23.992;2023-04-05T01:51:43;0.77;;;0.77;;
40649;SDS011;26342;42.826;23.992;2023-04-05T01:54:09;1.38;;;0.88;;
40649;SDS011;26342;42.826;23.992;2023-04-05T01:56:34;0.55;;;0.38;;
40649;SDS011;26342;42.826;23.992;2023-04-05T01:58:59;2.53;;;0.95;;
40649;SDS011;26342;42.826;23.992;2023-04-05T02:01:25;1.50;;;1.35;;
40649;SDS011;26342;42.826;23.992;2023-04-05T02:03:50;1.45;;;1.05;;
40649;SDS011;26342;42.826;23.992;2023-04-05T02:06:16;2.22;;;1.42;;
40649;SDS011;26342;42.826;23.992;2023-04-05T02:08:41;1.63;;;0.57;;
40649;SDS011;26342;42.826;23.992;2023-04-05T02:11:07;1.50;;;1.40;;
40649;SDS011;26342;42.826;23.992;2023-04-05T02:13:33;0.60;;;0.60;;
40649;SDS011;26342;42.826;23.992;2023-04-05T02:15:58;1.15;;;0.95;;
40649;SDS011;26342;42.826;23.992;2023-04-05T02:18:23;2.08;;;1.48;;
40649;SDS011;26342;42.826;23.992;2023-04-05T02:20:59;1.10;;;1.02;;
40649;SDS011;26342;42.826;23.992;2023-04-05T02:23:26;3.55;;;1.85;;
40649;SDS011;26342;42.826;23.992;2023-04-05T02:25:52;0.75;;;0.65;;
40649;SDS011;26342;42.826;23.992;2023-04-05T02:28:17;0.68;;;0.68;;
40649;SDS011;26342;42.826;23.992;2023-04-05T02:30:43;0.65;;;0.47;;
40649;SDS011;26342;42.826;23.992;2023-04-05T02:33:08;0.75;;;0.75;;
40649;SDS011;26342;42.826;23.992;2023-04-05T02:35:34;0.80;;;0.65;;
40649;SDS011;26342;42.826;23.992;2023-04-05T02:38:01;2.45;;;1.73;;
40649;SDS011;26342;42.826;23.992;2023-04-05T02:40:28;0.30;;;0.30;;
40649;SDS011;26342;42.826;23.992;2023-04-05T02:42:54;1.75;;;0.80;;
40649;SDS011;26342;42.826;23.992;2023-04-05T02:45:20;0.90;;;0.90;;
40649;SDS011;26342;42.826;23.992;2023-04-05T02:47:45;0.10;;;0.10;;
40649;SDS011;26342;42.826;23.992;2023-04-05T02:50:11;0.63;;;0.63;;
40649;SDS011;26342;42.826;23.992;2023-04-05T02:52:36;0.20;;;0.20;;
40649;SDS011;26342;42.826;23.992;2023-04-05T02:55:03;2.75;;;0.95;;
40649;SDS011;26342;42.826;23.992;2023-04-05T02:57:31;0.52;;;0.52;;
40649;SDS011;26342;42.826;23.992;2023-04-05T02:59:57;0.32;;;0.32;;
40649;SDS011;26342;42.826;23.992;2023-04-05T03:02:22;2.17;;;1.02;;
40649;SDS011;26342;42.826;23.992;2023-04-05T03:04:50;2.05;;;0.68;;
40649;SDS011;26342;42.826;23.992;2023-04-05T03:07:17;1.98;;;1.30;;
40649;SDS011;26342;42.826;23.992;2023-04-05T03:09:46;0.90;;;0.75;;
40649;SDS011;26342;42.826;23.992;2023-04-05T03:12:12;1.17;;;1.10;;
40649;SDS011;26342;42.826;23.992;2023-04-05T03:14:38;1.52;;;0.93;;
40649;SDS011;26342;42.826;23.992;2023-04-05T03:17:04;4.25;;;1.35;;
40649;SDS011;26342;42.826;23.992;2023-04-05T03:19:30;1.58;;;1.48;;
40649;SDS011;26342;42.826;23.992;2023-04-05T03:21:56;6.80;;;2.63;;
40649;SDS011;26342;42.826;23.992;2023-04-05T03:24:22;9.20;;;2.40;;
40649;SDS011;26342;42.826;23.992;2023-04-05T03:26:47;2.50;;;1.80;;
40649;SDS011;26342;42.826;23.992;2023-04-05T03:29:13;1.80;;;1.13;;
40649;SDS011;26342;42.826;23.992;2023-04-05T03:31:39;3.60;;;1.50;;
40649;SDS011;26342;42.826;23.992;2023-04-05T03:34:05;1.92;;;1.70;;
40649;SDS011;26342;42.826;23.992;2023-04-05T03:36:30;1.13;;;0.77;;
40649;SDS011;26342;42.826;23.992;2023-04-05T03:39:08;4.88;;;2.50;;
40649;SDS011;26342;42.826;23.992;2023-04-05T03:41:35;5.80;;;3.70;;
40649;SDS011;26342;42.826;23.992;2023-04-05T03:44:01;2.75;;;1.75;;
40649;SDS011;26342;42.826;23.992;2023-04-05T03:46:27;1.88;;;1.70;;
40649;SDS011;26342;42.826;23.992;2023-04-05T03:48:52;2.45;;;1.92;;
40649;SDS011;26342;42.826;23.992;2023-04-05T03:51:18;3.75;;;1.60;;
40649;SDS011;26342;42.826;23.992;2023-04-05T03:53:46;5.88;;;3.08;;
40649;SDS011;26342;42.826;23.992;2023-04-05T03:56:11;0.85;;;0.77;;
40649;SDS011;26342;42.826;23.992;2023-04-05T03:58:37;1.23;;;1.20;;
40649;SDS011;26342;42.826;23.992;2023-04-05T04:01:02;3.60;;;1.90;;
40649;SDS011;26342;42.826;23.992;2023-04-05T04:03:28;1.67;;;1.45;;
40649;SDS011;26342;42.826;23.992;2023-04-05T04:05:55;1.33;;;1.13;;
40649;SDS011;26342;42.826;23.992;2023-04-05T04:08:21;5.68;;;2.40;;
40649;SDS011;26342;42.826;23.992;2023-04-05T04:10:47;1.15;;;1.05;;
40649;SDS011;26342;42.826;23.992;2023-04-05T04:13:13;3.33;;;1.90;;
40649;SDS011;26342;42.826;23.992;2023-04-05T04:15:38;3.20;;;2.10;;
40649;SDS011;26342;42.826;23.992;2023-04-05T04:18:03;1.75;;;1.65;;
40649;SDS011;26342;42.826;23.992;2023-04-05T04:20:29;2.95;;;2.28;;
40649;SDS011;26342;42.826;23.992;2023-04-05T04:22:57;2.33;;;1.30;;
40649;SDS011;26342;42.826;23.992;2023-04-05T04:25:23;1.92;;;1.42;;
40649;SDS011;26342;42.826;23.992;2023-04-05T04:27:50;1.00;;;0.95;;
40649;SDS011;26342;42.826;23.992;2023-04-05T04:30:17;1.15;;;0.95;;
40649;SDS011;26342;42.826;23.992;2023-04-05T04:32:46;2.65;;;1.38;;
40649;SDS011;26342;42.826;23.992;2023-04-05T04:35:19;1.23;;;1.13;;
40649;SDS011;26342;42.826;23.992;2023-04-05T04:37:58;1.70;;;1.05;;
40649;SDS011;26342;42.826;23.992;2023-04-05T04:43:04;3.42;;;1.42;;
40649;SDS011;26342;42.826;23.992;2023-04-05T04:45:33;2.88;;;1.60;;
40649;SDS011;26342;42.826;23.992;2023-04-05T04:48:01;2.95;;;1.60;;
40649;SDS011;26342;42.826;23.992;2023-04-05T04:50:29;2.35;;;2.15;;
40649;SDS011;26342;42.826;23.992;2023-04-05T04:52:55;1.58;;;1.13;;
40649;SDS011;26342;42.826;23.992;2023-04-05T04:55:23;1.80;;;1.25;;
40649;SDS011;26342;42.826;23.992;2023-04-05T04:57:52;2.40;;;1.08;;
40649;SDS011;26342;42.826;23.992;2023-04-05T05:00:19;2.40;;;2.20;;
40649;SDS011;26342;42.826;23.992;2023-04-05T05:02:45;10.52;;;3.63;;
40649;SDS011;26342;42.826;23.992;2023-04-05T05:05:12;4.32;;;2.47;;
40649;SDS011;26342;42.826;23.992;2023-04-05T05:07:38;4.82;;;2.72;;
40649;SDS011;26342;42.826;23.992;2023-04-05T05:10:10;5.53;;;2.97;;
40649;SDS011;26342;42.826;23.992;2023-04-05T05:12:40;3.33;;;1.90;;
40649;SDS011;26342;42.826;23.992;2023-04-05T05:15:06;2.97;;;2.45;;
40649;SDS011;26342;42.826;23.992;2023-04-05T05:17:32;11.68;;;10.35;;
40649;SDS011;26342;42.826;23.992;2023-04-05T05:19:59;30.77;;;15.00;;
40649;SDS011;26342;42.826;23.992;2023-04-05T05:22:25;22.92;;;8.23;;
40649;SDS011;26342;42.826;23.992;2023-04-05T05:24:51;11.43;;;5.80;;
40649;SDS011;26342;42.826;23.992;2023-04-05T05:27:17;2.60;;;1.42;;
40649;SDS011;26342;42.826;23.992;2023-04-05T05:29:43;2.35;;;1.33;;
40649;SDS011;26342;42.826;23.992;2023-04-05T05:32:08;2.65;;;1.65;;
40649;SDS011;26342;42.826;23.992;2023-04-05T05:34:38;2.20;;;2.00;;
40649;SDS011;26342;42.826;23.992;2023-04-05T05:37:05;3.30;;;2.55;;
40649;SDS011;26342;42.826;23.992;2023-04-05T05:39:30;0.95;;;0.90;;
40649;SDS011;26342;42.826;23.992;2023-04-05T05:41:56;3.03;;;2.28;;
40649;SDS011;26342;42.826;23.992;2023-04-05T05:44:21;4.13;;;1.45;;
40649;SDS011;26342;42.826;23.992;2023-04-05T05:46:47;5.82;;;3.40;;
40649;SDS011;26342;42.826;23.992;2023-04-05T05:49:12;3.15;;;1.80;;
40649;SDS011;26342;42.826;23.992;2023-04-05T05:51:38;1.20;;;1.10;;
40649;SDS011;26342;42.826;23.992;2023-04-05T05:54:03;1.85;;;1.58;;
40649;SDS011;26342;42.826;23.992;2023-04-05T05:56:28;2.58;;;1.98;;
40649;SDS011;26342;42.826;23.992;2023-04-05T05:58:54;5.15;;;3.20;;
40649;SDS011;26342;42.826;23.992;2023-04-05T06:01:19;3.05;;;2.70;;
40649;SDS011;26342;42.826;23.992;2023-04-05T06:03:46;1.50;;;1.38;;
40649;SDS011;26342;42.826;23.992;2023-04-05T06:06:12;3.45;;;1.92;;
40649;SDS011;26342;42.826;23.992;2023-04-05T06:08:38;4.00;;;3.53;;
40649;SDS011;26342;42.826;23.992;2023-04-05T06:11:03;3.85;;;3.13;;
40649;SDS011;26342;42.826;23.992;2023-04-05T06:13:29;5.65;;;3.47;;
40649;SDS011;26342;42.826;23.992;2023-04-05T06:15:54;6.75;;;3.85;;
40649;SDS011;26342;42.826;23.992;2023-04-05T06:18:21;4.20;;;2.83;;
40649;SDS011;26342;42.826;23.992;2023-04-05T06:20:47;2.33;;;2.00;;
40649;SDS011;26342;42.826;23.992;2023-04-05T06:23:12;3.80;;;2.25;;
40649;SDS011;26342;42.826;23.992;2023-04-05T06:25:38;3.17;;;2.30;;
40649;SDS011;26342;42.826;23.992;2023-04-05T06:28:04;1.55;;;1.45;;
40649;SDS011;26342;42.826;23.992;2023-04-05T06:30:30;21.77;;;9.32;;
40649;SDS011;26342;42.826;23.992;2023-04-05T06:32:57;25.50;;;11.20;;
40649;SDS011;26342;42.826;23.992;2023-04-05T06:35:24;10.20;;;5.65;;
40649;SDS011;26342;42.826;23.992;2023-04-05T06:37:50;15.88;;;6.60;;
40649;SDS011;26342;42.826;23.992;2023-04-05T06:40:16;5.00;;;2.28;;
40649;SDS011;26342;42.826;23.992;2023-04-05T06:42:43;3.25;;;2.15;;
40649;SDS011;26342;42.826;23.992;2023-04-05T06:45:08;10.32;;;2.80;;
40649;SDS011;26342;42.826;23.992;2023-04-05T06:47:35;1.83;;;1.60;;
40649;SDS011;26342;42.826;23.992;2023-04-05T06:50:02;4.88;;;2.17;;
40649;SDS011;26342;42.826;23.992;2023-04-05T06:52:29;4.18;;;2.08;;
40649;SDS011;26342;42.826;23.992;2023-04-05T06:54:54;5.28;;;1.70;;
40649;SDS011;26342;42.826;23.992;2023-04-05T06:57:20;4.85;;;3.33;;
40649;SDS011;26342;42.826;23.992;2023-04-05T06:59:46;4.07;;;1.95;;
40649;SDS011;26342;42.826;23.992;2023-04-05T07:02:11;7.13;;;3.75;;
40649;SDS011;26342;42.826;23.992;2023-04-05T07:04:37;5.88;;;2.10;;
40649;SDS011;26342;42.826;23.992;2023-04-05T07:07:04;7.00;;;2.38;;
40649;SDS011;26342;42.826;23.992;2023-04-05T07:09:33;2.28;;;1.92;;
40649;SDS011;26342;42.826;23.992;2023-04-05T07:11:59;11.13;;;4.00;;
40649;SDS011;26342;42.826;23.992;2023-04-05T07:14:30;3.28;;;2.95;;
40649;SDS011;26342;42.826;23.992;2023-04-05T07:16:57;3.30;;;3.00;;
40649;SDS011;26342;42.826;23.992;2023-04-05T07:19:23;1.98;;;1.73;;
40649;SDS011;26342;42.826;23.992;2023-04-05T07:21:51;0.52;;;0.52;;
40649;SDS011;26342;42.826;23.992;2023-04-05T07:24:17;0.20;;;0.20;;
40649;SDS011;26342;42.826;23.992;2023-04-05T07:26:43;3.35;;;0.85;;
40649;SDS011;26342;42.826;23.992;2023-04-05T07:29:09;0.60;;;0.60;;
40649;SDS011;26342;42.826;23.992;2023-04-05T07:31:37;7.07;;;1.00;;
40649;SDS011;26342;42.826;23.992;2023-04-05T07:34:07;3.50;;;1.65;;
40649;SDS011;26342;42.826;23.992;2023-04-05T07:36:33;3.05;;;0.82;;
40649;SDS011;26342;42.826;23.992;2023-04-05T07:38:59;0.93;;;0.90;;
40649;SDS011;26342;42.826;23.992;2023-04-05T07:41:26;1.23;;;1.13;;
40649;SDS011;26342;42.826;23.992;2023-04-05T07:43:57;1.00;;;1.00;;
40649;SDS011;26342;42.826;23.992;2023-04-05T07:46:25;1.70;;;1.45;;
40649;SDS011;26342;42.826;23.992;2023-04-05T07:48:51;0.65;;;0.30;;
40649;SDS011;26342;42.826;23.992;2023-04-05T07:51:17;1.38;;;0.85;;
40649;SDS011;26342;42.826;23.992;2023-04-05T07:53:43;1.77;;;1.13;;
40649;SDS011;26342;42.826;23.992;2023-04-05T07:56:10;3.65;;;1.08;;
40649;SDS011;26342;42.826;23.992;2023-04-05T07:58:39;0.17;;;0.17;;
40649;SDS011;26342;42.826;23.992;2023-04-05T08:01:06;0.15;;;0.15;;
40649;SDS011;26342;42.826;23.992;2023-04-05T08:03:33;0.15;;;0.15;;
40649;SDS011;26342;42.826;23.992;2023-04-05T08:06:09;0.38;;;0.13;;
40649;SDS011;26342;42.826;23.992;2023-04-05T08:08:51;0.32;;;0.25;;
40649;SDS011;26342;42.826;23.992;2023-04-05T08:11:19;0.50;;;0.50;;
40649;SDS011;26342;42.826;23.992;2023-04-05T08:13:50;2.60;;;1.13;;
40649;SDS011;26342;42.826;23.992;2023-04-05T08:16:19;1.83;;;0.63;;
40649;SDS011;26342;42.826;23.992;2023-04-05T08:18:50;0.85;;;0.85;;
40649;SDS011;26342;42.826;23.992;2023-04-05T08:21:15;0.57;;;0.57;;
40649;SDS011;26342;42.826;23.992;2023-04-05T08:23:46;0.20;;;0.20;;
40649;SDS011;26342;42.826;23.992;2023-04-05T08:26:13;1.33;;;0.88;;
40649;SDS011;26342;42.826;23.992;2023-04-05T08:28:39;0.47;;;0.47;;
40649;SDS011;26342;42.826;23.992;2023-04-05T08:31:05;1.40;;;1.10;;
40649;SDS011;26342;42.826;23.992;2023-04-05T08:33:31;1.27;;;1.08;;
40649;SDS011;26342;42.826;23.992;2023-04-05T08:36:03;0.82;;;0.60;;
40649;SDS011;26342;42.826;23.992;2023-04-05T08:38:32;1.60;;;1.48;;
40649;SDS011;26342;42.826;23.992;2023-04-05T08:41:02;4.18;;;2.25;;
40649;SDS011;26342;42.826;23.992;2023-04-05T08:46:03;0.40;;;0.40;;
40649;SDS011;26342;42.826;23.992;2023-04-05T08:48:36;0.47;;;0.47;;
40649;SDS011;26342;42.826;23.992;2023-04-05T08:51:09;1.65;;;0.65;;
40649;SDS011;26342;42.826;23.992;2023-04-05T08:53:34;1.15;;;0.70;;
40649;SDS011;26342;42.826;23.992;2023-04-05T08:56:04;2.03;;;1.33;;
40649;SDS011;26342;42.826;23.992;2023-04-05T08:58:36;0.47;;;0.47;;
40649;SDS011;26342;42.826;23.992;2023-04-05T09:01:03;1.45;;;0.57;;
40649;SDS011;26342;42.826;23.992;2023-04-05T09:03:34;0.70;;;0.70;;
40649;SDS011;26342;42.826;23.992;2023-04-05T09:06:04;0.85;;;0.80;;
40649;SDS011;26342;42.826;23.992;2023-04-05T09:08:31;2.05;;;1.77;;
40649;SDS011;26342;42.826;23.992;2023-04-05T09:10:58;2.70;;;1.55;;
40649;SDS011;26342;42.826;23.992;2023-04-05T09:13:30;1.63;;;1.25;;
40649;SDS011;26342;42.826;23.992;2023-04-05T09:15:56;2.13;;;0.93;;
40649;SDS011;26342;42.826;23.992;2023-04-05T09:18:22;1.08;;;0.60;;
40649;SDS011;26342;42.826;23.992;2023-04-05T09:20:47;0.30;;;0.30;;
40649;SDS011;26342;42.826;23.992;2023-04-05T09:23:13;0.30;;;0.30;;
40649;SDS011;26342;42.826;23.992;2023-04-05T09:25:39;0.40;;;0.40;;
40649;SDS011;26342;42.826;23.992;2023-04-05T09:28:07;0.38;;;0.38;;
40649;SDS011;26342;42.826;23.992;2023-04-05T09:30:34;0.25;;;0.25;;
40649;SDS011;26342;42.826;23.992;2023-04-05T09:33:01;1.27;;;1.13;;
40649;SDS011;26342;42.826;23.992;2023-04-05T09:35:31;3.10;;;2.60;;
40649;SDS011;26342;42.826;23.992;2023-04-05T09:37:57;3.95;;;2.03;;
40649;SDS011;26342;42.826;23.992;2023-04-05T09:40:45;1.73;;;1.40;;
40649;SDS011;26342;42.826;23.992;2023-04-05T09:46:06;1.85;;;1.02;;
40649;SDS011;26342;42.826;23.992;2023-04-05T09:48:51;0.10;;;0.10;;
40649;SDS011;26342;42.826;23.992;2023-04-05T09:51:17;1.42;;;0.82;;
40649;SDS011;26342;42.826;23.992;2023-04-05T09:56:54;2.88;;;1.13;;
40649;SDS011;26342;42.826;23.992;2023-04-05T10:01:49;0.40;;;0.40;;
40649;SDS011;26342;42.826;23.992;2023-04-05T10:04:18;1.38;;;0.73;;
40649;SDS011;26342;42.826;23.992;2023-04-05T10:06:43;1.50;;;1.15;;
40649;SDS011;26342;42.826;23.992;2023-04-05T10:09:12;0.95;;;0.70;;
40649;SDS011;26342;42.826;23.992;2023-04-05T10:11:39;1.25;;;1.15;;
40649;SDS011;26342;42.826;23.992;2023-04-05T10:14:08;9.77;;;3.20;;
40649;SDS011;26342;42.826;23.992;2023-04-05T10:16:44;2.67;;;1.08;;
40649;SDS011;26342;42.826;23.992;2023-04-05T10:19:54;3.95;;;2.72;;
40649;SDS011;26342;42.826;23.992;2023-04-05T10:22:21;3.85;;;1.38;;
40649;SDS011;26342;42.826;23.992;2023-04-05T10:24:58;0.77;;;0.77;;
40649;SDS011;26342;42.826;23.992;2023-04-05T10:27:32;1.92;;;1.75;;
40649;SDS011;26342;42.826;23.992;2023-04-05T10:30:05;6.22;;;2.65;;
40649;SDS011;26342;42.826;23.992;2023-04-05T10:35:49;5.10;;;1.20;;
40649;SDS011;26342;42.826;23.992;2023-04-05T10:42:40;11.88;;;4.97;;
40649;SDS011;26342;42.826;23.992;2023-04-05T10:44:51;4.78;;;3.55;;
40649;SDS011;26342;42.826;23.992;2023-04-05T10:47:24;1.85;;;1.70;;
40649;SDS011;26342;42.826;23.992;2023-04-05T10:49:52;1.38;;;0.45;;
40649;SDS011;26342;42.826;23.992;2023-04-05T10:52:21;1.17;;;1.02;;
40649;SDS011;26342;42.826;23.992;2023-04-05T10:54:47;1.05;;;0.50;;
40649;SDS011;26342;42.826;23.992;2023-04-05T10:57:13;2.10;;;1.90;;
40649;SDS011;26342;42.826;23.992;2023-04-05T10:59:41;1.65;;;1.30;;
40649;SDS011;26342;42.826;23.992;2023-04-05T11:02:12;5.90;;;4.53;;
40649;SDS011;26342;42.826;23.992;2023-04-05T11:04:42;8.45;;;2.10;;
40649;SDS011;26342;42.826;23.992;2023-04-05T11:09:37;2.17;;;0.90;;
40649;SDS011;26342;42.826;23.992;2023-04-05T11:12:04;1.58;;;1.15;;
40649;SDS011;26342;42.826;23.992;2023-04-05T11:16:58;0.57;;;0.57;;
40649;SDS011;26342;42.826;23.992;2023-04-05T11:22:10;4.32;;;3.22;;
40649;SDS011;26342;42.826;23.992;2023-04-05T11:24:49;0.88;;;0.68;;
40649;SDS011;26342;42.826;23.992;2023-04-05T11:27:25;1.33;;;0.98;;
40649;SDS011;26342;42.826;23.992;2023-04-05T11:29:52;1.10;;;1.08;;
40649;SDS011;26342;42.826;23.992;2023-04-05T11:32:18;3.03;;;2.30;;
40649;SDS011;26342;42.826;23.992;2023-04-05T11:34:56;1.67;;;0.95;;
40649;SDS011;26342;42.826;23.992;2023-04-05T11:40:35;2.63;;;0.65;;
40649;SDS011;26342;42.826;23.992;2023-04-05T11:43:05;0.20;;;0.10;;
40649;SDS011;26342;42.826;23.992;2023-04-05T11:45:33;1.80;;;1.05;;
40649;SDS011;26342;42.826;23.992;2023-04-05T11:48:11;1.27;;;0.93;;
40649;SDS011;26342;42.826;23.992;2023-04-05T11:50:38;2.42;;;1.60;;
40649;SDS011;26342;42.826;23.992;2023-04-05T11:55:35;1.48;;;1.00;;
40649;SDS011;26342;42.826;23.992;2023-04-05T11:58:01;0.40;;;0.40;;
40649;SDS011;26342;42.826;23.992;2023-04-05T12:00:27;2.20;;;1.33;;
40649;SDS011;26342;42.826;23.992;2023-04-05T12:02:54;1.70;;;1.05;;
40649;SDS011;26342;42.826;23.992;2023-04-05T12:05:20;1.55;;;0.88;;
40649;SDS011;26342;42.826;23.992;2023-04-05T12:07:50;0.47;;;0.47;;
40649;SDS011;26342;42.826;23.992;2023-04-05T12:10:16;1.73;;;0.90;;
40649;SDS011;26342;42.826;23.992;2023-04-05T12:12:42;0.63;;;0.57;;
40649;SDS011;26342;42.826;23.992;2023-04-05T12:15:12;2.13;;;1.80;;
40649;SDS011;26342;42.826;23.992;2023-04-05T12:17:43;5.47;;;2.47;;
40649;SDS011;26342;42.826;23.992;2023-04-05T12:20:16;9.88;;;2.70;;
40649;SDS011;26342;42.826;23.992;2023-04-05T12:22:44;2.05;;;1.85;;
40649;SDS011;26342;42.826;23.992;2023-04-05T12:25:13;1.67;;;0.93;;
40649;SDS011;26342;42.826;23.992;2023-04-05T12:27:39;1.05;;;0.50;;
40649;SDS011;26342;42.826;23.992;2023-04-05T12:32:36;2.28;;;1.13;;
40649;SDS011;26342;42.826;23.992;2023-04-05T12:35:06;1.02;;;0.82;;
40649;SDS011;26342;42.826;23.992;2023-04-05T12:37:34;0.47;;;0.47;;
40649;SDS011;26342;42.826;23.992;2023-04-05T12:40:06;0.63;;;0.40;;
40649;SDS011;26342;42.826;23.992;2023-04-05T12:42:33;0.77;;;0.77;;
40649;SDS011;26342;42.826;23.992;2023-04-05T12:45:06;1.63;;;1.02;;
40649;SDS011;26342;42.826;23.992;2023-04-05T12:47:46;3.63;;;1.67;;
40649;SDS011;26342;42.826;23.992;2023-04-05T12:50:16;2.17;;;1.75;;
40649;SDS011;26342;42.826;23.992;2023-04-05T12:55:23;0.73;;;0.57;;
40649;SDS011;26342;42.826;23.992;2023-04-05T12:57:52;0.95;;;0.80;;
40649;SDS011;26342;42.826;23.992;2023-04-05T13:00:25;8.35;;;2.70;;
40649;SDS011;26342;42.826;23.992;2023-04-05T13:02:52;1.77;;;1.67;;
40649;SDS011;26342;42.826;23.992;2023-04-05T13:05:22;3.28;;;2.17;;
40649;SDS011;26342;42.826;23.992;2023-04-05T13:07:50;3.83;;;1.20;;
40649;SDS011;26342;42.826;23.992;2023-04-05T13:10:16;1.45;;;1.35;;
40649;SDS011;26342;42.826;23.992;2023-04-05T13:12:43;2.25;;;2.05;;
40649;SDS011;26342;42.826;23.992;2023-04-05T13:15:09;2.58;;;2.38;;
40649;SDS011;26342;42.826;23.992;2023-04-05T13:17:35;2.47;;;1.88;;
40649;SDS011;26342;42.826;23.992;2023-04-05T13:20:00;2.10;;;1.90;;
40649;SDS011;26342;42.826;23.992;2023-04-05T13:22:26;4.72;;;3.10;;
40649;SDS011;26342;42.826;23.992;2023-04-05T13:24:52;2.08;;;1.88;;
40649;SDS011;26342;42.826;23.992;2023-04-05T13:27:18;6.25;;;2.92;;
40649;SDS011;26342;42.826;23.992;2023-04-05T13:29:45;1.85;;;1.50;;
40649;SDS011;26342;42.826;23.992;2023-04-05T13:32:11;2.67;;;1.90;;
40649;SDS011;26342;42.826;23.992;2023-04-05T13:34:36;4.00;;;3.05;;
40649;SDS011;26342;42.826;23.992;2023-04-05T13:37:02;2.78;;;2.38;;
40649;SDS011;26342;42.826;23.992;2023-04-05T13:39:27;2.15;;;2.05;;
40649;SDS011;26342;42.826;23.992;2023-04-05T13:41:53;3.60;;;1.80;;
40649;SDS011;26342;42.826;23.992;2023-04-05T13:44:18;2.20;;;2.05;;
40649;SDS011;26342;42.826;23.992;2023-04-05T13:46:44;2.30;;;2.10;;
40649;SDS011;26342;42.826;23.992;2023-04-05T13:49:09;1.98;;;1.80;;
40649;SDS011;26342;42.826;23.992;2023-04-05T13:51:34;1.83;;;1.73;;
40649;SDS011;26342;42.826;23.992;2023-04-05T13:54:05;3.15;;;2.60;;
40649;SDS011;26342;42.826;23.992;2023-04-05T13:56:35;2.75;;;2.55;;
40649;SDS011;26342;42.826;23.992;2023-04-05T13:59:03;4.07;;;3.72;;
40649;SDS011;26342;42.826;23.992;2023-04-05T14:01:29;10.18;;;4.20;;
40649;SDS011;26342;42.826;23.992;2023-04-05T14:03:55;7.40;;;4.78;;
40649;SDS011;26342;42.826;23.992;2023-04-05T14:06:20;11.15;;;7.20;;
40649;SDS011;26342;42.826;23.992;2023-04-05T14:08:46;8.25;;;5.03;;
40649;SDS011;26342;42.826;23.992;2023-04-05T14:11:11;14.15;;;4.35;;
40649;SDS011;26342;42.826;23.992;2023-04-05T14:13:37;10.48;;;4.50;;
40649;SDS011;26342;42.826;23.992;2023-04-05T14:16:02;4.60;;;3.60;;
40649;SDS011;26342;42.826;23.992;2023-04-05T14:18:28;10.02;;;2.42;;
40649;SDS011;26342;42.826;23.992;2023-04-05T14:20:54;3.58;;;2.42;;
40649;SDS011;26342;42.826;23.992;2023-04-05T14:23:20;2.75;;;1.42;;
40649;SDS011;26342;42.826;23.992;2023-04-05T14:25:46;0.52;;;0.38;;
40649;SDS011;26342;42.826;23.992;2023-04-05T14:28:11;0.95;;;0.90;;
40649;SDS011;26342;42.826;23.992;2023-04-05T14:30:37;1.25;;;1.17;;
40649;SDS011;26342;42.826;23.992;2023-04-05T14:33:02;2.80;;;1.00;;
40649;SDS011;26342;42.826;23.992;2023-04-05T14:35:28;0.85;;;0.73;;
40649;SDS011;26342;42.826;23.992;2023-04-05T14:37:53;5.15;;;1.50;;
40649;SDS011;26342;42.826;23.992;2023-04-05T14:40:19;0.80;;;0.77;;
40649;SDS011;26342;42.826;23.992;2023-04-05T14:42:44;2.53;;;2.08;;
40649;SDS011;26342;42.826;23.992;2023-04-05T14:45:10;1.30;;;0.95;;
40649;SDS011;26342;42.826;23.992;2023-04-05T14:47:36;1.92;;;1.50;;
40649;SDS011;26342;42.826;23.992;2023-04-05T14:50:02;2.40;;;1.25;;
40649;SDS011;26342;42.826;23.992;2023-04-05T14:52:27;0.98;;;0.93;;
40649;SDS011;26342;42.826;23.992;2023-04-05T14:54:52;1.75;;;1.55;;
40649;SDS011;26342;42.826;23.992;2023-04-05T14:57:18;2.22;;;2.08;;
40649;SDS011;26342;42.826;23.992;2023-04-05T14:59:43;0.28;;;0.28;;
40649;SDS011;26342;42.826;23.992;2023-04-05T15:02:09;2.70;;;0.88;;
40649;SDS011;26342;42.826;23.992;2023-04-05T15:04:35;1.05;;;0.63;;
40649;SDS011;26342;42.826;23.992;2023-04-05T15:07:01;1.55;;;1.15;;
40649;SDS011;26342;42.826;23.992;2023-04-05T15:09:26;5.50;;;3.38;;
40649;SDS011;26342;42.826;23.992;2023-04-05T15:11:51;2.65;;;1.92;;
40649;SDS011;26342;42.826;23.992;2023-04-05T15:14:17;6.00;;;3.25;;
40649;SDS011;26342;42.826;23.992;2023-04-05T15:16:43;1.63;;;1.52;;
40649;SDS011;26342;42.826;23.992;2023-04-05T15:19:08;1.27;;;1.17;;
40649;SDS011;26342;42.826;23.992;2023-04-05T15:21:33;3.45;;;1.70;;
40649;SDS011;26342;42.826;23.992;2023-04-05T15:23:59;0.70;;;0.70;;
40649;SDS011;26342;42.826;23.992;2023-04-05T15:26:26;2.72;;;1.48;;